Main page
METAR-TAF:

METAR-TAF

Airports :

Teesside International Airport

Durham, England

latitude: 54-31N, longitude: 001-25W, elevation: 37 m

Current weather observation

The report was made 41 minutes ago, at 15:50 UTC
Wind 5 kt from the South, varying between Southeast and Southwest
Temperature 23°C
Humidity 38%
Pressure 1031 hPa
Visibility 10 km or more
no clouds below 1500 m and no cumulonimbus

METAR: EGNV 281550Z 17005KT 130V220 CAVOK 23/08 Q1031

Time: 17:31 (16:31 UTC)

Forecast

The report was made 2 hours and 40 minutes ago, at 13:51 UTC
Forecast valid from 28 at 15 UTC to 28 at 23 UTC
Wind 7 kt from the Southeast
Visibility 10 km or more
no clouds below 1500 m and no cumulonimbus

TAF: EGNV 281351Z 2815/2823 14007KT CAVOK

Weather observations and forecasts of more than 4000 airports (METAR and TAF reports).

The available stations are represented by yellow and red dots on the map.

Hover mouse over dot to see the name of the station.

Then click to see weather observations and forecasts.

To change the map : click on the green buttons with a black cross to zoom in, on the green button with a dash to zoom out, or on the green arrows for adjacent maps.


METAR-TAF: